Esterhazy, Canada
Current Conditions -  °F | °C
As of 10:00 AM on Sunday 25 Jan 2015 (Local Time) from CYQV Reporting Station
Clear Clear  
Wind Chill:   Ceiling: Unl
Heat Index: 16°   Visibility: 9mi
Dew Point: 14°   Wind: 10mph
Humidity: 93%   Direction: 190°S
Pressure: 29.89"   Gusts: NA
Location:  50.65°N, 102.08°W
Report Text: CYQV 251600Z AUTO 19009KT 9SM CLR M09/M10 A2989 RMK PRESFR SLP158
Loading
Personal Weather Stations






























Interactive Weather Map New forecast layout! Learn more

10-Day Weather Forecast

Advertisements
Track Severe Weather on mobile